Millenium Air

Millenium Air Since 1998



 METAR AND TAF INFORMATION
METAR FOR LDRI
ADDS - METARS form results

(0439 UTC 05 August 2020)
Data provider http://aviationweather.gov/metar/data/
 
METAR text: LDRI 050430Z 08011G22KT 010V180 9999 SCT040 19/11 Q1010
Conditions at: LDRI (RIJEKA/OMISALJ , HR) observed 0430 UTC 05 August 2020
Temperature: 19.0°C (66°F)
Dewpoint: 11.0°C (52°F) [RH = 60%]
Pressure (altimeter): 29.82 inches Hg (1010.0 mb)
Winds: from the E (80 degrees) at 13 MPH (11 knots; 5.7 m/s)
gusting to 25 MPH (22 knots; 11.3 m/s)
Visibility: 6 or more miles (10+ km)
Ceiling: at least 12,000 feet AGL
Clouds: scattered clouds at 4000 feet AGL
Weather: no significant weather observed at this time

METAR text: LDRI 050400Z 35010KT 9999 SCT040 20/11 Q1010
Conditions at: LDRI (RIJEKA/OMISALJ , HR) observed 0400 UTC 05 August 2020
Temperature: 20.0°C (68°F)
Dewpoint: 11.0°C (52°F) [RH = 56%]
Pressure (altimeter): 29.82 inches Hg (1010.0 mb)
Winds: from the N (350 degrees) at 12 MPH (10 knots; 5.1 m/s)
Visibility: 6 or more miles (10+ km)
Ceiling: at least 12,000 feet AGL
Clouds: scattered clouds at 4000 feet AGL
Weather: no significant weather observed at this time

METAR text: LDRI 050340Z 35010KT 9999 SCT040 20/11 Q1010
Conditions at: LDRI (RIJEKA/OMISALJ , HR) observed 0340 UTC 05 August 2020
Temperature: 20.0°C (68°F)
Dewpoint: 11.0°C (52°F) [RH = 56%]
Pressure (altimeter): 29.82 inches Hg (1010.0 mb)
Winds: from the N (350 degrees) at 12 MPH (10 knots; 5.1 m/s)
Visibility: 6 or more miles (10+ km)
Ceiling: at least 12,000 feet AGL
Clouds: scattered clouds at 4000 feet AGL
Weather: no significant weather observed at this time

Forecast for: LDRI (RIJEKA/OMISALJ , HR)
Text: TAF LDRI 042325Z 0500/0600 VRB10KT 9999 FEW020 BKN050 TX22/0512Z TN17/0503Z
Forecast period: 0000 UTC 05 August 2020 to 0000 UTC 06 August 2020
Forecast type: FROM: standard forecast or significant change
Winds: variable direction winds at 12 MPH (10 knots; 5.1 m/s)
Visibility: 6 or more miles 10+ km)
Ceiling: 5000 feet AGL
Clouds: few clouds at 2000 feet AGL
broken clouds at 5000 feet AGL
Weather: no significant weather forecast for this period
Text: TEMPO 0500/0507 06020G40KT
Forecast period: 0000 to 0700 UTC 05 August 2020
Forecast type: TEMPORARY: The following changes expected for less than half the time period
Winds: from the ENE (60 degrees) at 23 MPH (20 knots; 10.3 m/s)
gusting to 46 MPH (40 knots; 20.6 m/s)
Visibility: missing
Ceiling: unknown
Clouds: missing
Weather: no significant weather forecast for this period

 AIRPORT MAP

 RUNWAY INFORMATION
Runway 14 Runway length 8164 ft Runway width 148 ft
Runway elevation 264 ft Runway displaced threshold 0 ft Runway heading 144
Runway 32 Runway length 8164 ft Runway width 148 ft
Runway elevation 246 ft Runway displaced threshold 0 ft Runway heading 324

 AIRPORT FREQUENCIES
Type APP Name APP Frequency 119 MHZ
Type TWR Name TWR Frequency 119 MHZ

 AIRPORT NEAR NAVIGATION AIDS
Type NDB Name Breza Frequency 400 KHZ
Type NDB Name Kozala Frequency 438 KHZ
Type VOR-DME Name Rijeka Frequency 117800 KHZ